Time;durP1;ratioP1;P1;durP2;ratioP2;P2;SDS_P1;SDS_P2;PMS_P1;PMS_P2;Temp;Humidity;BMP_temperature;BMP_pressure;BME280_temperature;BME280_humidity;BME280_pressure;Samples;Min_cycle;Max_cycle;Signal;HPM_P1;HPM_P2
2022/02/07 00:01:06;;;;;;;11.50;5.65;;;;;;;9.03;55.84;101249.96;1700979;83;21549;-76
2022/02/07 00:03:48;;;;;;;15.38;4.92;;;;;;;9.03;55.84;101248.66;1698393;83;21057;-75
2022/02/07 00:06:13;;;;;;;17.62;5.45;;;;;;;9.03;55.82;101252.12;1690015;83;21535;-77
2022/02/07 00:08:41;;;;;;;15.28;6.05;;;;;;;9.03;55.79;101255.16;1693540;83;21149;-76
2022/02/07 00:11:07;;;;;;;11.12;5.28;;;;;;;9.03;55.89;101248.66;1707953;83;21097;-76
2022/02/07 00:13:34;;;;;;;19.52;5.75;;;;;;;9.03;55.92;101242.63;1662496;85;21071;-76
2022/02/07 00:16:02;;;;;;;15.20;5.67;;;;;;;9.01;55.95;101233.53;1652821;86;21051;-77
2022/02/07 00:18:29;;;;;;;13.18;5.15;;;;;;;9.01;55.92;101224.02;1653028;87;21011;-77
2022/02/07 00:20:58;;;;;;;16.73;7.25;;;;;;;9.01;55.86;101217.96;1651614;87;21035;-76
2022/02/07 00:23:24;;;;;;;14.38;6.30;;;;;;;9.02;55.94;101213.21;1651939;87;21027;-76
2022/02/07 00:25:51;;;;;;;12.05;5.03;;;;;;;9.02;55.94;101214.52;1646808;86;21036;-75
2022/02/07 00:28:18;;;;;;;10.55;4.50;;;;;;;9.01;55.99;101212.77;1641700;86;21067;-76
2022/02/07 00:30:44;;;;;;;11.50;5.72;;;;;;;9.02;56.12;101204.13;1651305;87;21074;-77
2022/02/07 00:33:11;;;;;;;9.58;5.03;;;;;;;9.02;56.18;101202.83;1642485;86;21076;-76
2022/02/07 00:35:38;;;;;;;10.35;4.80;;;;;;;9.02;56.26;101198.94;1653778;86;21066;-77
2022/02/07 00:38:10;;;;;;;13.30;5.28;;;;;;;9.02;56.31;101191.15;1650638;86;21055;-76
2022/02/07 00:40:58;;;;;;;16.40;6.17;;;;;;;9.02;56.38;101188.55;1630722;86;21848;-77
2022/02/07 00:45:52;;;;;;;15.43;5.92;;;;;;;9.01;56.41;101173.84;1688268;83;21072;-76
2022/02/07 00:48:19;;;;;;;14.13;5.50;;;;;;;9.00;56.38;101166.94;1771778;80;21002;-76
2022/02/07 00:50:45;;;;;;;15.35;5.95;;;;;;;9.00;56.36;101155.27;1759266;80;21545;-76
2022/02/07 00:53:14;;;;;;;18.50;6.70;;;;;;;8.99;56.37;101154.39;1755746;80;20994;-76
2022/02/07 00:55:43;;;;;;;17.65;6.12;;;;;;;9.01;56.34;101147.88;1750439;80;21061;-76
2022/02/07 00:58:10;;;;;;;13.13;6.15;;;;;;;9.01;56.36;101153.07;1773397;80;21038;-75
2022/02/07 01:00:36;;;;;;;15.48;7.03;;;;;;;9.01;56.44;101148.75;1754990;80;21021;-76
2022/02/07 01:03:03;;;;;;;15.32;5.87;;;;;;;9.03;56.57;101150.48;1770192;80;21031;-77
2022/02/07 01:05:31;;;;;;;15.38;6.78;;;;;;;9.02;56.66;101140.53;1768079;80;21018;-77
2022/02/07 01:08:00;;;;;;;13.45;5.45;;;;;;;9.03;56.55;101134.91;1745550;80;21044;-76
2022/02/07 01:10:37;;;;;;;12.25;5.72;;;;;;;9.02;56.68;101130.16;1747365;80;21076;-76
2022/02/07 01:48:51;;;;;;;14.40;6.45;;;;;;;9.08;56.51;101079.47;1687767;83;21022;-77
2022/02/07 01:51:10;;;;;;;13.03;5.62;;;;;;;9.08;56.50;101072.98;1686547;84;21504;-75
2022/02/07 01:56:06;;;;;;;14.85;6.67;;;;;;;9.11;56.31;101061.25;1687153;83;21022;-76
2022/02/07 01:58:33;;;;;;;14.23;5.37;;;;;;;9.12;56.19;101055.62;1676125;84;21061;-77
2022/02/07 02:01:00;;;;;;;11.95;5.62;;;;;;;9.12;56.17;101056.50;1644298;84;21074;-76
2022/02/07 02:03:27;;;;;;;13.80;5.87;;;;;;;9.12;56.28;101053.90;1664750;84;21562;-75
2022/02/07 02:05:56;;;;;;;15.63;5.72;;;;;;;9.13;56.25;101056.90;1676424;83;21042;-76
2022/02/07 02:08:24;;;;;;;17.80;5.97;;;;;;;9.12;56.21;101049.14;1639621;86;21050;-76
2022/02/07 02:10:56;;;;;;;19.15;6.62;;;;;;;9.13;56.20;101051.70;1667838;85;21115;-76
2022/02/07 02:13:27;;;;;;;11.45;5.85;;;;;;;9.14;56.18;101045.66;1670714;85;21063;-77
2022/02/07 02:16:09;;;;;;;13.78;6.55;;;;;;;9.13;56.25;101033.53;1720794;82;21071;-75
2022/02/07 02:35:17;;;;;;;13.00;5.17;;;;;;;9.18;55.72;101010.98;1625963;86;21057;-76
2022/02/07 02:37:19;;;;;;;11.18;6.00;;;;;;;9.19;55.64;100988.03;1624708;87;21039;-76
2022/02/07 02:45:36;;;;;;;18.60;6.42;;;;;;;9.22;55.61;100989.30;1682011;84;21620;-76
2022/02/07 02:48:11;;;;;;;17.62;6.60;;;;;;;9.24;55.50;100977.16;1655659;85;21102;-75
2022/02/07 02:50:41;;;;;;;17.87;6.42;;;;;;;9.27;55.40;100968.05;1630178;86;21186;-75
2022/02/07 02:53:11;;;;;;;14.58;5.90;;;;;;;9.27;55.35;100964.16;1627105;86;21609;-75
2022/02/07 02:55:40;;;;;;;;;;;;;;;9.29;55.37;100959.80;1692900;84;20994;-76
2022/02/07 02:58:09;;;;;;;11.20;5.22;;;;;;;9.29;55.48;100948.11;1687602;80;20446;-75
2022/02/07 03:00:38;;;;;;;14.23;5.40;;;;;;;9.30;55.49;100939.86;1726167;81;21045;-76
2022/02/07 03:03:08;;;;;;;12.73;5.45;;;;;;;9.30;55.29;100919.95;1744663;81;21540;-77
2022/02/07 03:05:34;;;;;;;14.05;4.85;;;;;;;9.30;55.10;100908.27;1748068;81;21505;-77
2022/02/07 03:08:01;;;;;;;12.28;5.80;;;;;;;9.31;54.86;100896.15;1753620;80;21003;-75
2022/02/07 03:10:41;;;;;;;16.15;4.90;;;;;;;9.30;54.68;100897.87;1758459;81;21066;-75
2022/02/07 03:18:12;;;;;;;10.25;4.37;;;;;;;9.29;54.79;100902.67;1710335;82;21546;-75
2022/02/07 03:20:39;;;;;;;11.10;4.42;;;;;;;9.30;54.77;100900.91;1731593;82;21011;-76
2022/02/07 03:23:05;;;;;;;11.15;4.53;;;;;;;9.29;54.52;100894.87;1726356;82;21497;-75
2022/02/07 03:25:33;;;;;;;11.63;4.53;;;;;;;9.28;54.37;100898.34;1719796;82;21539;-76
2022/02/07 03:28:01;;;;;;;12.37;5.47;;;;;;;9.26;54.32;100893.61;1722353;82;21064;-76
2022/02/07 03:30:31;;;;;;;15.95;5.12;;;;;;;9.25;54.36;100885.85;1720230;83;21074;-75
2022/02/07 03:32:58;;;;;;;16.15;5.05;;;;;;;9.24;54.46;100884.98;1733730;82;21086;-74
2022/02/07 03:35:25;;;;;;;9.65;4.97;;;;;;;9.25;54.56;100884.13;1703006;82;21042;-75
2022/02/07 03:37:52;;;;;;;16.10;5.33;;;;;;;9.23;54.69;100876.80;1723459;82;21033;-74
2022/02/07 03:40:19;;;;;;;11.78;5.00;;;;;;;9.23;54.77;100871.60;1714094;82;21216;-74
2022/02/07 03:42:47;;;;;;;15.63;5.70;;;;;;;9.25;54.74;100867.24;1719288;82;21097;-75
2022/02/07 03:45:13;;;;;;;13.45;5.85;;;;;;;9.28;54.60;100867.19;1728385;82;20979;-75
2022/02/07 03:47:42;;;;;;;13.80;5.42;;;;;;;9.28;54.58;100858.53;1722505;82;21069;-76
2022/02/07 03:50:10;;;;;;;14.80;5.12;;;;;;;9.29;54.65;100850.73;1715269;83;21047;-75
2022/02/07 03:52:38;;;;;;;16.25;6.35;;;;;;;9.29;54.72;100841.66;1727440;82;21065;-75
2022/02/07 03:55:07;;;;;;;18.80;5.80;;;;;;;9.29;54.78;100839.05;1733045;82;21128;-75
2022/02/07 03:57:33;;;;;;;16.00;5.17;;;;;;;9.30;54.91;100833.39;1724261;82;21045;-76
2022/02/07 04:00:04;;;;;;;11.22;4.83;;;;;;;9.29;54.99;100827.37;1722006;82;21017;-75
2022/02/07 04:02:29;;;;;;;8.03;4.42;;;;;;;9.29;55.13;100835.16;1733502;82;21038;-75
2022/02/07 04:05:11;;;;;;;15.23;4.92;;;;;;;9.28;55.28;100833.42;1719357;82;21037;-75
2022/02/07 04:07:24;;;;;;;12.68;4.62;;;;;;;9.27;55.33;100834.33;1694787;83;21510;-76
2022/02/07 04:09:55;;;;;;;12.65;4.65;;;;;;;9.25;55.39;100839.98;1719085;82;21019;-75
2022/02/07 04:12:23;;;;;;;12.30;5.03;;;;;;;9.26;55.26;100841.68;1717364;81;21019;-76
2022/02/07 04:14:50;;;;;;;14.90;5.22;;;;;;;9.27;55.26;100841.25;1733981;81;20994;-75
2022/02/07 04:17:24;;;;;;;14.07;5.47;;;;;;;9.25;55.27;100827.44;1760785;80;21035;-76
2022/02/07 04:19:47;;;;;;;15.18;5.30;;;;;;;9.25;55.26;100827.44;1749261;80;21006;-75
2022/02/07 04:22:14;;;;;;;12.85;5.20;;;;;;;9.27;55.13;100818.75;1756968;80;21049;-75
2022/02/07 04:25:01;;;;;;;11.68;4.28;;;;;;;9.28;54.90;100815.25;1663879;85;21089;-75
2022/02/07 04:27:38;;;;;;;13.30;4.90;;;;;;;9.30;54.64;100816.08;1669141;85;21061;-76
2022/02/07 04:30:07;;;;;;;7.62;4.22;;;;;;;9.30;54.51;100818.68;1637671;84;21002;-74
2022/02/07 04:32:36;;;;;;;13.93;5.78;;;;;;;9.30;54.50;100818.68;1659622;85;21077;-75
2022/02/07 04:35:04;;;;;;;20.12;5.00;;;;;;;9.32;54.57;100819.52;1635016;86;21133;-76
2022/02/07 04:37:31;;;;;;;10.38;4.67;;;;;;;9.33;54.64;100817.34;1610326;88;21067;-75
2022/02/07 04:39:58;;;;;;;11.25;4.25;;;;;;;9.35;54.68;100813.42;1617318;88;21107;-75
2022/02/07 04:42:27;;;;;;;11.93;5.37;;;;;;;9.35;54.60;100814.29;1628522;87;21583;-74
2022/02/07 04:50:33;;;;;;;16.73;5.20;;;;;;;9.34;55.08;100804.77;1633983;86;21037;-75
2022/02/07 05:01:03;;;;;;;20.55;5.17;;;;;;;9.40;54.79;100798.17;1583548;89;21077;-75
2022/02/07 05:03:23;;;;;;;11.53;4.25;;;;;;;9.41;54.72;100794.71;1588257;89;21673;-75
2022/02/07 05:13:51;;;;;;;9.70;4.25;;;;;;;9.40;55.12;100773.50;1655815;86;21062;-76
2022/02/07 05:16:30;;;;;;;11.75;4.35;;;;;;;9.37;55.25;100776.17;1611105;87;21065;-75
2022/02/07 05:18:57;;;;;;;9.18;4.28;;;;;;;9.37;55.41;100770.98;1570463;91;21091;-75
2022/02/07 05:21:26;;;;;;;13.25;4.53;;;;;;;9.37;55.51;100781.36;1541531;92;21080;-75
2022/02/07 05:24:09;;;;;;;13.78;4.83;;;;;;;9.35;55.62;100775.34;1533084;92;21124;-76
2022/02/07 05:26:46;;;;;;;10.98;5.12;;;;;;;9.34;55.76;100765.81;1541741;92;21094;-76
2022/02/07 05:29:15;;;;;;;12.82;5.28;;;;;;;9.35;55.90;100761.48;1539158;92;21123;-76
2022/02/07 05:31:47;;;;;;;18.42;5.85;;;;;;;9.35;56.07;100770.14;1534758;92;21167;-76
2022/02/07 05:34:16;;;;;;;15.78;6.15;;;;;;;9.35;56.27;100771.44;1492810;95;21591;-76
2022/02/07 05:36:46;;;;;;;13.78;5.67;;;;;;;9.37;56.47;100773.57;1473432;95;21152;-76
2022/02/07 05:39:35;;;;;;;14.90;6.10;;;;;;;9.37;56.75;100767.52;1472025;95;21158;-75
2022/02/07 05:42:18;;;;;;;11.95;6.08;;;;;;;9.36;56.90;100756.26;1439444;98;21113;-76
2022/02/07 05:44:48;;;;;;;15.00;6.42;;;;;;;9.36;57.10;100758.86;1456778;97;21115;-76
2022/02/07 05:47:34;;;;;;;14.00;6.85;;;;;;;9.36;57.20;100756.26;1447697;97;21249;-76
2022/02/07 05:50:18;;;;;;;14.98;7.47;;;;;;;9.37;57.25;100747.60;1434113;98;21148;-75
2022/02/07 05:52:49;;;;;;;18.37;7.55;;;;;;;9.38;57.31;100733.72;1464659;96;21549;-76
2022/02/07 05:55:27;;;;;;;23.30;7.67;;;;;;;9.38;57.40;100725.92;1432500;98;21178;-75
2022/02/07 05:58:12;;;;;;;15.45;7.15;;;;;;;9.40;57.44;100725.89;1497017;93;21641;-75
2022/02/07 06:00:54;;;;;;;17.42;7.12;;;;;;;9.41;57.52;100724.59;1522991;92;21139;-77
2022/02/07 06:03:21;;;;;;;18.45;8.63;;;;;;;9.43;57.54;100722.83;1520287;92;21058;-76
2022/02/07 06:05:58;;;;;;;13.60;6.58;;;;;;;9.45;57.54;100722.78;1502218;93;21151;-76
2022/02/07 06:08:25;;;;;;;18.25;7.53;;;;;;;9.45;57.57;100705.47;1511553;93;21099;-76
2022/02/07 06:10:52;;;;;;;14.25;6.90;;;;;;;9.48;57.69;100702.80;1547427;91;21107;-76
2022/02/07 06:13:20;;;;;;;19.05;8.08;;;;;;;9.50;57.72;100693.23;1557887;91;21218;-77
2022/02/07 06:15:49;;;;;;;15.70;7.28;;;;;;;9.54;57.80;100688.87;1568127;90;21062;-75
2022/02/07 06:18:18;;;;;;;16.73;8.03;;;;;;;9.57;57.71;100685.77;1561715;91;21099;-77
2022/02/07 06:20:48;;;;;;;15.18;7.40;;;;;;;9.60;57.75;100685.69;1558992;91;21071;-76
2022/02/07 06:23:16;;;;;;;17.00;7.35;;;;;;;9.64;57.75;100680.84;1561793;90;21078;-76
2022/02/07 06:25:43;;;;;;;16.27;7.87;;;;;;;9.69;57.64;100684.23;1568324;90;21054;-76
2022/02/07 06:28:10;;;;;;;14.15;7.78;;;;;;;9.72;57.62;100686.78;1562883;91;21183;-75
2022/02/07 06:30:38;;;;;;;17.98;8.45;;;;;;;9.73;57.58;100681.98;1584422;84;21050;-76
2022/02/07 06:33:06;;;;;;;17.98;7.95;;;;;;;9.77;57.57;100671.94;1674666;84;21038;-76
2022/02/07 06:35:33;;;;;;;15.90;7.42;;;;;;;9.80;57.43;100674.49;1687798;84;21083;-75
2022/02/07 06:38:01;;;;;;;13.90;7.08;;;;;;;9.83;57.48;100673.11;1671854;84;21050;-75
2022/02/07 06:40:28;;;;;;;13.78;7.80;;;;;;;9.85;57.50;100664.84;1674505;80;21081;-76
2022/02/07 06:42:55;;;;;;;14.98;7.75;;;;;;;9.89;57.49;100666.09;1761838;80;21069;-76
2022/02/07 06:45:22;;;;;;;17.05;7.97;;;;;;;9.93;57.48;100670.34;1775847;80;21006;-75
2022/02/07 06:47:49;;;;;;;18.42;7.67;;;;;;;9.94;57.59;100659.91;1767162;80;21031;-76
2022/02/07 06:50:16;;;;;;;15.88;7.80;;;;;;;10.00;57.60;100658.91;1761066;80;21076;-76
2022/02/07 06:52:43;;;;;;;16.02;8.05;;;;;;;10.06;57.47;100669.19;1759230;80;20974;-76
2022/02/07 06:55:10;;;;;;;14.83;7.47;;;;;;;10.11;57.33;100662.19;1763373;80;21007;-75
2022/02/07 06:57:39;;;;;;;15.08;7.78;;;;;;;10.17;57.14;100656.86;1771896;80;21043;-75
2022/02/07 07:00:08;;;;;;;20.08;7.40;;;;;;;10.20;56.91;100655.03;1767359;80;21451;-75
2022/02/07 07:02:39;;;;;;;15.40;7.75;;;;;;;10.23;56.92;100664.52;1766223;80;21609;-77
2022/02/07 07:05:13;;;;;;;17.98;7.78;;;;;;;10.28;56.79;100673.92;1773650;80;21073;-76
2022/02/07 07:07:37;;;;;;;15.60;8.68;;;;;;;10.33;56.63;100666.03;1770187;80;21051;-76
2022/02/07 07:10:06;;;;;;;14.25;7.87;;;;;;;10.35;56.52;100653.84;1756563;80;21042;-77
2022/02/07 07:12:34;;;;;;;19.83;7.80;;;;;;;10.37;56.38;100655.53;1747432;80;21063;-76
2022/02/07 07:17:34;;;;;;;15.13;8.08;;;;;;;10.38;56.36;100636.45;1763296;80;21002;-76
2022/02/07 07:20:05;;;;;;;19.50;8.68;;;;;;;10.39;56.33;100644.65;1776988;80;20966;-75
2022/02/07 07:22:35;;;;;;;14.58;7.67;;;;;;;10.40;56.40;100639.88;1763437;80;21124;-75
2022/02/07 07:25:04;;;;;;;18.10;8.60;;;;;;;10.44;56.37;100635.44;1764521;80;21581;-76
2022/02/07 07:27:37;;;;;;;17.55;8.63;;;;;;;10.48;56.43;100630.58;1746365;81;21015;-75
2022/02/07 07:30:00;;;;;;;17.37;7.60;;;;;;;10.53;56.23;100627.44;1765039;80;21511;-75
2022/02/07 07:32:29;;;;;;;20.08;8.78;;;;;;;10.56;55.98;100623.01;1758910;80;21009;-75
2022/02/07 07:34:56;;;;;;;19.30;8.78;;;;;;;10.56;55.94;100632.55;1752547;81;21074;-75
2022/02/07 07:37:25;;;;;;;21.75;8.80;;;;;;;10.56;55.98;100631.25;1754780;80;21066;-75
2022/02/07 07:39:52;;;;;;;13.55;7.65;;;;;;;10.56;55.96;100632.55;1746687;80;21011;-76
2022/02/07 07:42:20;;;;;;;17.60;7.67;;;;;;;10.57;56.06;100635.58;1743173;80;21031;-74
2022/02/07 07:44:54;;;;;;;16.70;8.73;;;;;;;10.55;56.10;100634.29;1669165;84;21106;-75
2022/02/07 07:47:27;;;;;;;12.95;8.38;;;;;;;10.54;56.16;100633.03;1665458;85;21069;-76
2022/02/07 08:06:19;;;;;;;17.30;8.60;;;;;;;10.50;56.88;100618.39;1388490;102;21166;-75
2022/02/07 08:11:15;;;;;;;21.27;9.97;;;;;;;10.55;56.90;100617.38;1375387;104;20834;-76
2022/02/07 08:13:54;;;;;;;19.82;8.90;;;;;;;10.58;56.88;100617.77;1370598;104;21640;-76
2022/02/07 08:16:23;;;;;;;17.60;9.70;;;;;;;10.59;57.09;100610.37;1374755;103;21177;-76
2022/02/07 08:18:49;;;;;;;15.63;9.33;;;;;;;10.58;57.15;100597.81;1376908;102;21335;-76
2022/02/07 08:21:16;;;;;;;15.03;9.53;;;;;;;10.59;57.30;100592.17;1378937;103;21157;-76
2022/02/07 08:23:43;;;;;;;16.07;9.70;;;;;;;10.58;57.39;100586.10;1377296;103;21177;-77
2022/02/07 08:26:10;;;;;;;18.60;10.35;;;;;;;10.59;57.57;100583.89;1372015;104;21146;-75
2022/02/07 08:28:37;;;;;;;20.57;9.80;;;;;;;10.61;57.64;100589.08;1446886;97;21157;-76
2022/02/07 08:31:03;;;;;;;21.00;9.85;;;;;;;10.62;57.67;100585.13;1456987;96;21601;-76
2022/02/07 08:33:32;;;;;;;23.98;9.90;;;;;;;10.63;57.71;100595.10;1499634;94;21130;-74
2022/02/07 08:35:58;;;;;;;19.20;10.70;;;;;;;10.62;57.90;100593.37;1491668;95;21074;-75
2022/02/07 08:38:25;;;;;;;20.12;10.30;;;;;;;10.64;57.95;100587.69;1504578;95;21604;-75
2022/02/07 08:40:51;;;;;;;18.37;10.60;;;;;;;10.66;58.03;100578.09;1501584;95;21075;-76
2022/02/07 08:43:18;;;;;;;24.43;10.80;;;;;;;10.69;58.05;100575.44;1517769;93;21136;-76
2022/02/07 08:45:44;;;;;;;17.60;10.43;;;;;;;10.75;58.13;100575.28;1531002;93;21626;-77
2022/02/07 08:48:12;;;;;;;22.02;12.00;;;;;;;10.81;58.02;100576.42;1523931;88;21649;-76
2022/02/07 08:50:39;;;;;;;18.25;11.43;;;;;;;10.87;58.08;100559.78;1637610;86;21038;-76
2022/02/07 08:53:06;;;;;;;23.85;11.48;;;;;;;10.92;57.89;100565.27;1628481;86;21092;-77
2022/02/07 08:55:36;;;;;;;18.92;11.12;;;;;;;10.97;57.61;100559.50;1634096;87;21054;-76
2022/02/07 08:58:11;;;;;;;23.32;11.90;;;;;;;11.01;57.49;100550.72;1620442;87;21668;-75
2022/02/07 09:00:48;;;;;;;22.35;11.75;;;;;;;11.03;57.52;100548.06;1629043;85;21070;-75
2022/02/07 09:03:21;;;;;;;17.42;11.48;;;;;;;11.05;57.36;100552.34;1653389;84;21110;-76
2022/02/07 09:05:46;;;;;;;27.77;12.90;;;;;;;11.07;57.38;100542.74;1711053;82;21016;-76
2022/02/07 09:08:24;;;;;;;23.47;11.83;;;;;;;11.12;57.34;100542.63;1750229;80;21011;-75
2022/02/07 09:10:49;;;;;;;22.73;11.70;;;;;;;11.16;57.29;100537.30;1766931;80;21557;-75
2022/02/07 09:13:17;;;;;;;18.92;11.22;;;;;;;11.23;57.13;100532.30;1756000;80;21009;-76
2022/02/07 09:18:12;;;;;;;18.25;10.48;;;;;;;11.29;56.69;100521.71;1696942;83;21542;-76
2022/02/07 09:20:43;;;;;;;18.30;11.43;;;;;;;11.29;56.78;100515.20;1672252;85;21540;-77
2022/02/07 09:23:11;;;;;;;20.15;11.20;;;;;;;11.29;56.62;100500.88;1677197;84;21062;-76
2022/02/07 09:25:38;;;;;;;19.98;11.50;;;;;;;11.29;56.62;100494.36;1688774;84;21049;-76
2022/02/07 09:28:04;;;;;;;22.20;11.45;;;;;;;11.29;56.62;100478.73;1651509;85;21066;-74
2022/02/07 09:30:32;;;;;;;21.27;10.93;;;;;;;11.32;56.66;100473.45;1622885;87;21039;-76
2022/02/07 09:32:58;;;;;;;21.42;11.30;;;;;;;11.34;56.69;100468.19;1631823;86;21034;-75
2022/02/07 09:35:25;;;;;;;19.77;10.98;;;;;;;11.39;56.61;100464.57;1636250;86;21086;-75
2022/02/07 09:37:53;;;;;;;15.23;9.25;;;;;;;11.43;56.53;100463.58;1631982;87;21102;-75
2022/02/07 09:40:21;;;;;;;20.52;11.38;;;;;;;11.48;56.44;100446.95;1629545;87;21043;-76
2022/02/07 09:42:55;;;;;;;19.32;10.65;;;;;;;11.53;56.39;100446.34;1654565;85;21097;-75
2022/02/07 09:45:30;;;;;;;22.30;10.38;;;;;;;11.57;56.20;100444.91;1643879;85;21156;-74
2022/02/07 09:47:48;;;;;;;22.65;10.18;;;;;;;11.58;56.07;100432.74;1648347;85;21047;-76
2022/02/07 09:50:14;;;;;;;21.68;10.18;;;;;;;11.62;55.97;100429.14;1623682;86;21103;-75
2022/02/07 09:52:41;;;;;;;20.40;10.53;;;;;;;11.63;55.73;100436.05;1651205;85;21045;-75
2022/02/07 09:55:10;;;;;;;15.85;9.28;;;;;;;11.63;55.84;100426.48;1651069;84;21657;-77
2022/02/07 09:57:37;;;;;;;16.35;9.58;;;;;;;11.66;55.75;100411.20;1694759;84;21071;-75
2022/02/07 10:00:08;;;;;;;25.12;10.00;;;;;;;11.63;55.60;100393.05;1694044;84;21048;-75
2022/02/07 10:02:47;;;;;;;13.90;9.08;;;;;;;11.65;55.63;100391.24;1692966;83;21040;-75
2022/02/07 10:05:13;;;;;;;20.93;9.37;;;;;;;11.66;55.40;100399.48;1698418;84;21066;-75
2022/02/07 10:07:53;;;;;;;20.75;10.55;;;;;;;11.64;55.38;100394.32;1666241;84;21065;-74
2022/02/07 10:15:45;;;;;;;22.00;10.10;;;;;;;11.57;55.42;100386.28;1746391;80;21073;-77
2022/02/07 10:40:34;;;;;;;19.20;8.15;;;;;;;11.73;54.91;100367.12;1739895;81;21489;-73
2022/02/07 10:46:09;;;;;;;19.30;9.10;;;;;;;11.75;55.08;100375.30;1658254;85;21051;-71
2022/02/07 10:48:44;;;;;;;19.00;9.23;;;;;;;11.79;54.93;100393.84;1604253;88;22977;-71
2022/02/07 10:51:18;;;;;;;19.65;9.70;;;;;;;11.82;54.90;100398.11;1605041;89;21074;-72
2022/02/07 10:53:54;;;;;;;22.80;9.10;;;;;;;11.88;54.79;100394.00;1602353;88;21058;-72
2022/02/07 10:56:36;;;;;;;17.07;8.18;;;;;;;11.92;54.67;100376.05;1601469;88;21598;-72
2022/02/07 10:59:08;;;;;;;17.02;9.48;;;;;;;11.93;54.60;100363.43;1607705;88;21046;-73
2022/02/07 11:04:29;;;;;;;17.85;8.03;;;;;;;11.96;54.77;100356.34;1609583;88;21065;-72
2022/02/07 11:06:58;;;;;;;16.45;8.60;;;;;;;12.02;54.58;100344.84;1610505;87;21542;-73
2022/02/07 11:14:35;;;;;;;13.43;8.43;;;;;;;12.08;54.16;100330.30;1605142;88;21573;-72
2022/02/07 11:19:45;;;;;;;16.62;7.53;;;;;;;12.05;54.03;100321.29;1580649;89;21079;-73
2022/02/07 11:22:22;;;;;;;12.80;7.47;;;;;;;12.03;54.08;100319.19;1534227;91;21105;-72
2022/02/07 11:27:48;;;;;;;15.95;7.50;;;;;;;11.92;54.15;100299.14;1496453;94;21093;-73
2022/02/07 11:30:14;;;;;;;18.25;8.48;;;;;;;11.83;54.26;100300.30;1480668;95;21788;-73
2022/02/07 11:32:48;;;;;;;18.77;8.18;;;;;;;11.76;54.50;100290.14;1493351;95;21053;-73
2022/02/07 11:35:24;;;;;;;21.45;9.70;;;;;;;11.75;54.77;100286.67;1495791;93;21637;-72
2022/02/07 11:38:04;;;;;;;16.20;7.72;;;;;;;11.78;54.80;100284.42;1495738;93;21188;-73
2022/02/07 11:40:40;;;;;;;14.55;7.53;;;;;;;11.80;54.67;100278.70;1533050;92;21141;-73
2022/02/07 11:43:19;;;;;;;19.98;8.55;;;;;;;11.79;54.65;100273.08;1473101;96;21074;-72
2022/02/07 11:45:58;;;;;;;16.45;7.58;;;;;;;11.78;54.74;100274.00;1488345;95;21628;-72
2022/02/07 11:48:47;;;;;;;16.65;7.90;;;;;;;11.76;54.84;100271.89;1471091;96;21298;-72
2022/02/07 11:51:27;;;;;;;15.65;7.72;;;;;;;11.78;54.94;100271.39;1472325;94;21146;-72
2022/02/07 11:54:03;;;;;;;11.85;7.45;;;;;;;11.79;54.92;100267.86;1504395;93;21105;-73
2022/02/07 11:56:48;;;;;;;15.28;8.55;;;;;;;11.80;54.81;100272.19;1516461;93;21227;-72
2022/02/07 12:02:05;;;;;;;18.23;7.72;;;;;;;11.79;54.97;100267.86;1516593;93;21127;-72
2022/02/07 12:04:48;;;;;;;17.37;8.05;;;;;;;11.80;55.01;100257.84;1508021;93;21580;-72
2022/02/07 12:07:21;;;;;;;21.73;7.85;;;;;;;11.85;54.92;100262.47;1509784;92;21092;-73
2022/02/07 12:12:44;;;;;;;18.75;8.28;;;;;;;11.89;54.89;100267.50;1515555;92;21142;-73
2022/02/07 12:15:23;;;;;;;19.73;7.55;;;;;;;11.93;54.82;100266.96;1522689;92;21103;-72
2022/02/07 12:17:57;;;;;;;14.40;7.83;;;;;;;11.95;54.77;100262.55;1527851;89;21037;-73
2022/02/07 12:20:30;;;;;;;17.82;7.97;;;;;;;11.95;54.80;100258.16;1600508;89;21072;-72
2022/02/07 12:23:10;;;;;;;15.05;7.70;;;;;;;11.96;54.94;100248.59;1564939;89;21064;-72
2022/02/07 12:28:39;;;;;;;18.32;7.60;;;;;;;12.03;54.71;100246.17;1468638;96;21099;-73
2022/02/07 12:31:10;;;;;;;16.55;8.20;;;;;;;12.09;54.55;100237.69;1410797;101;21648;-72
2022/02/07 12:33:32;;;;;;;18.32;8.25;;;;;;;12.14;54.35;100244.88;1407441;100;21170;-73
2022/02/07 12:36:00;;;;;;;15.00;7.80;;;;;;;12.15;54.18;100241.81;1401164;100;21144;-72
2022/02/07 12:38:37;;;;;;;16.37;7.67;;;;;;;12.16;54.01;100233.93;1413981;100;21218;-71
2022/02/07 12:41:05;;;;;;;14.35;7.35;;;;;;;12.14;54.29;100234.88;1423702;97;21175;-73
2022/02/07 12:43:37;;;;;;;19.00;8.05;;;;;;;12.15;54.11;100230.94;1463689;96;21149;-71
2022/02/07 12:46:07;;;;;;;15.45;7.65;;;;;;;12.13;54.09;100219.71;1455212;97;21254;-73
2022/02/07 12:48:37;;;;;;;25.72;8.85;;;;;;;12.12;54.23;100217.14;1460648;96;21107;-73
2022/02/07 12:51:03;;;;;;;20.70;8.68;;;;;;;12.11;54.13;100221.52;1469954;97;21618;-72
2022/02/07 12:53:32;;;;;;;18.80;9.18;;;;;;;12.11;54.17;100227.19;1461796;96;21092;-73
2022/02/07 12:56:01;;;;;;;14.95;7.87;;;;;;;12.12;54.18;100226.27;1461802;97;21595;-74
2022/02/07 12:58:34;;;;;;;20.27;7.83;;;;;;;12.14;54.03;100233.58;1462113;96;21165;-73
2022/02/07 13:01:23;;;;;;;16.65;8.30;;;;;;;12.14;53.88;100232.27;1453451;97;21583;-72
2022/02/07 13:03:54;;;;;;;13.43;7.53;;;;;;;12.13;53.84;100235.80;1465281;96;21101;-73
2022/02/07 13:06:36;;;;;;;19.90;8.63;;;;;;;12.11;53.63;100239.78;1456753;97;21717;-72
2022/02/07 13:09:13;;;;;;;17.32;8.15;;;;;;;12.10;53.63;100239.37;1464759;96;21115;-73
2022/02/07 13:11:48;;;;;;;17.25;8.65;;;;;;;12.08;53.53;100233.80;1455265;97;21204;-74
2022/02/07 13:14:08;;;;;;;14.68;7.92;;;;;;;12.05;53.48;100236.54;1442079;97;21158;-73
2022/02/07 13:16:35;;;;;;;11.70;7.47;;;;;;;12.01;53.57;100238.38;1455847;97;21160;-74
2022/02/07 13:19:13;;;;;;;15.40;7.97;;;;;;;12.00;53.62;100248.88;1455240;96;21622;-73
2022/02/07 13:21:42;;;;;;;17.17;8.05;;;;;;;11.98;53.50;100245.47;1497114;94;21140;-73
2022/02/07 13:24:15;;;;;;;16.52;7.35;;;;;;;11.93;53.58;100244.80;1497466;92;21181;-73
2022/02/07 13:26:48;;;;;;;21.60;7.45;;;;;;;11.92;53.71;100237.87;1574698;86;21093;-74
2022/02/07 13:29:21;;;;;;;14.95;7.03;;;;;;;11.90;53.74;100235.32;1674045;84;21543;-72
2022/02/07 13:32:02;;;;;;;19.57;7.92;;;;;;;11.90;53.79;100237.07;1623814;86;21089;-74
2022/02/07 13:34:32;;;;;;;23.18;8.68;;;;;;;11.91;53.82;100238.79;1624524;86;21628;-72
2022/02/07 13:37:20;;;;;;;18.30;7.47;;;;;;;11.90;53.67;100227.50;1644827;86;21129;-73
2022/02/07 13:40:04;;;;;;;17.30;8.10;;;;;;;11.89;53.61;100232.78;1551812;91;21642;-72
2022/02/07 13:42:34;;;;;;;18.32;7.75;;;;;;;11.85;53.57;100221.59;1513556;93;21133;-72
2022/02/07 13:45:12;;;;;;;20.20;8.00;;;;;;;11.82;53.61;100226.06;1536318;92;21092;-73
2022/02/07 13:47:44;;;;;;;13.75;8.03;;;;;;;11.79;53.63;100217.89;1455045;97;21133;-73
2022/02/07 13:50:20;;;;;;;16.20;8.13;;;;;;;11.77;53.71;100209.28;1446005;98;21569;-72
2022/02/07 13:52:49;;;;;;;17.37;7.60;;;;;;;11.74;53.79;100207.23;1446192;97;21163;-72
2022/02/07 13:55:32;;;;;;;15.45;7.65;;;;;;;11.71;53.71;100199.52;1472174;96;21107;-73
2022/02/07 13:58:09;;;;;;;18.57;7.50;;;;;;;11.69;53.76;100196.11;1444130;98;21696;-73
2022/02/07 14:00:47;;;;;;;18.42;8.20;;;;;;;11.66;53.83;100201.41;1425961;98;21173;-73
2022/02/07 14:03:20;;;;;;;12.25;7.30;;;;;;;11.62;53.86;100201.12;1461337;96;21104;-72
2022/02/07 14:05:52;;;;;;;18.30;7.67;;;;;;;11.59;53.91;100196.00;1459666;96;21034;-72
2022/02/07 14:08:45;;;;;;;15.10;7.65;;;;;;;11.55;54.01;100195.70;1425014;99;21204;-72
2022/02/07 14:11:14;;;;;;;18.92;7.25;;;;;;;11.52;54.14;100193.23;1444882;98;21629;-72
2022/02/07 14:13:42;;;;;;;14.38;7.47;;;;;;;11.48;54.18;100194.23;1435609;97;21577;-72
2022/02/07 14:16:10;;;;;;;15.45;7.35;;;;;;;11.41;54.22;100189.23;1432302;97;21627;-72
2022/02/07 14:18:43;;;;;;;14.85;7.87;;;;;;;11.39;54.32;100184.53;1443046;97;21173;-73
2022/02/07 14:23:36;;;;;;;14.90;7.62;;;;;;;11.34;54.48;100182.52;1430088;98;21136;-72